createdAt,value
2022-08-02T00:02:17.417Z,2.90
2022-08-02T00:04:45.467Z,3.00
2022-08-02T00:07:13.980Z,2.80
2022-08-02T00:09:43.720Z,2.67
2022-08-02T00:12:12.599Z,2.70
2022-08-02T00:14:40.919Z,2.70
2022-08-02T00:17:09.224Z,2.83
2022-08-02T00:19:37.339Z,3.00
2022-08-02T00:22:05.450Z,2.93
2022-08-02T00:24:33.538Z,2.70
2022-08-02T00:27:05.036Z,2.73
2022-08-02T00:29:52.178Z,3.30
2022-08-02T00:32:22.448Z,2.80
2022-08-02T00:34:50.593Z,2.80
2022-08-02T00:37:18.794Z,2.90
2022-08-02T00:39:46.879Z,2.87
2022-08-02T00:42:16.649Z,2.87
2022-08-02T00:44:44.731Z,2.90
2022-08-02T00:47:19.068Z,3.00
2022-08-02T00:49:48.055Z,3.07
2022-08-02T00:52:16.323Z,3.10
2022-08-02T00:54:44.451Z,3.00
2022-08-02T00:57:12.582Z,2.97
2022-08-02T00:59:42.388Z,3.07
2022-08-02T01:02:11.137Z,2.90
2022-08-02T01:04:39.454Z,3.07
2022-08-02T01:07:12.558Z,3.10
2022-08-02T01:09:42.743Z,3.00
2022-08-02T01:12:11.953Z,3.10
2022-08-02T01:14:42.045Z,3.00
2022-08-02T01:17:13.707Z,3.17
2022-08-02T01:19:45.121Z,3.00
2022-08-02T01:22:30.380Z,2.77
2022-08-02T01:25:19.960Z,2.80
2022-08-02T01:27:58.545Z,3.20
2022-08-02T01:30:28.285Z,3.10
2022-08-02T01:33:00.099Z,3.10
2022-08-02T01:35:47.170Z,2.83
2022-08-02T01:38:25.314Z,2.80
2022-08-02T01:40:54.969Z,2.80
2022-08-02T01:43:24.022Z,2.70
2022-08-02T01:45:54.405Z,2.93
2022-08-02T01:48:23.111Z,2.90
2022-08-02T01:50:52.225Z,2.80
2022-08-02T01:53:21.859Z,2.80
2022-08-02T01:55:58.340Z,2.70
2022-08-02T01:58:29.289Z,2.73
2022-08-02T02:00:59.752Z,2.73
2022-08-02T02:03:29.268Z,2.60
2022-08-02T02:05:59.097Z,2.57
2022-08-02T02:08:29.455Z,2.40
2022-08-02T02:12:14.113Z,2.77
2022-08-02T02:13:46.687Z,2.60
2022-08-02T02:16:17.070Z,2.63
2022-08-02T02:18:46.453Z,2.90
2022-08-02T02:21:16.788Z,2.60
2022-08-02T02:23:44.944Z,2.53
2022-08-02T02:26:16.840Z,2.60
2022-08-02T02:28:49.317Z,2.67
2022-08-02T02:31:20.275Z,2.50
2022-08-02T02:34:14.692Z,2.97
2022-08-02T02:36:46.420Z,2.60
2022-08-02T02:39:15.956Z,2.40
2022-08-02T02:41:44.846Z,2.60
2022-08-02T02:44:18.048Z,2.60
2022-08-02T02:46:51.440Z,2.40
2022-08-02T02:49:21.230Z,2.50
2022-08-02T02:51:49.699Z,2.70
2022-08-02T02:54:33.065Z,2.80
2022-08-02T02:57:32.303Z,2.50
2022-08-02T03:00:00.651Z,2.90
2022-08-02T03:02:30.231Z,2.50
2022-08-02T03:05:02.728Z,2.60
2022-08-02T03:07:31.097Z,2.63
2022-08-02T03:09:59.711Z,2.70
2022-08-02T03:12:31.920Z,2.50
2022-08-02T03:15:01.744Z,2.70
2022-08-02T03:17:40.483Z,2.53
2022-08-02T03:20:11.737Z,2.63
2022-08-02T03:22:39.893Z,2.90
2022-08-02T03:25:09.589Z,2.70
2022-08-02T03:27:37.806Z,2.87
2022-08-02T03:30:08.202Z,2.50
2022-08-02T03:32:36.994Z,2.80
2022-08-02T03:35:08.497Z,2.50
2022-08-02T03:37:36.841Z,2.70
2022-08-02T03:40:08.268Z,2.47
2022-08-02T03:42:36.420Z,2.63
2022-08-02T03:45:08.783Z,2.63
2022-08-02T03:47:38.798Z,2.70
2022-08-02T03:50:10.563Z,2.73
2022-08-02T03:52:39.018Z,3.10
2022-08-02T03:55:07.741Z,2.97
2022-08-02T03:57:38.441Z,3.07
2022-08-02T04:00:07.603Z,2.60
2022-08-02T04:02:40.448Z,2.60
2022-08-02T04:05:10.356Z,2.50
2022-08-02T04:08:33.893Z,2.70
2022-08-02T04:10:27.313Z,2.67
2022-08-02T04:12:55.800Z,3.10
2022-08-02T04:15:24.809Z,2.87
2022-08-02T04:17:57.613Z,2.53
2022-08-02T04:20:29.496Z,2.60
2022-08-02T04:23:00.019Z,3.10
2022-08-02T04:25:35.402Z,2.80
2022-08-02T04:28:17.614Z,2.50
2022-08-02T04:30:47.643Z,2.80
2022-08-02T04:33:15.927Z,2.90
2022-08-02T04:35:46.205Z,2.97
2022-08-02T04:38:15.765Z,2.70
2022-08-02T04:40:51.906Z,2.77
2022-08-02T04:43:20.185Z,2.80
2022-08-02T04:45:48.762Z,2.83
2022-08-02T04:48:16.824Z,2.70
2022-08-02T04:50:46.243Z,2.90
2022-08-02T04:53:14.460Z,2.90
2022-08-02T04:55:42.539Z,2.97
2022-08-02T04:58:38.359Z,2.90
2022-08-02T05:00:58.720Z,2.97
2022-08-02T05:03:26.807Z,2.93
2022-08-02T05:05:56.346Z,2.87
2022-08-02T05:08:24.371Z,3.10
2022-08-02T05:10:52.470Z,2.97
2022-08-02T05:13:20.592Z,3.20
2022-08-02T05:15:50.054Z,3.10
2022-08-02T05:18:18.274Z,2.80
2022-08-02T05:20:46.421Z,3.10
2022-08-02T05:23:15.895Z,3.10
2022-08-02T05:25:43.980Z,2.90
2022-08-02T05:28:12.109Z,3.10
2022-08-02T05:30:40.527Z,2.90
2022-08-02T05:33:08.797Z,3.07
2022-08-02T05:35:36.990Z,3.50
2022-08-02T05:38:05.083Z,3.40
2022-08-02T05:40:54.256Z,3.43
2022-08-02T05:43:23.419Z,3.03
2022-08-02T05:45:54.506Z,3.77
2022-08-02T05:48:26.417Z,4.00
2022-08-02T05:51:02.678Z,3.77
2022-08-02T05:53:37.985Z,3.53
2022-08-02T05:56:13.954Z,3.40
2022-08-02T05:58:52.227Z,3.83
2022-08-02T06:01:24.952Z,3.70
2022-08-02T06:03:53.951Z,3.97
2022-08-02T06:06:23.391Z,3.70
2022-08-02T06:09:00.506Z,4.33
2022-08-02T06:11:36.764Z,4.10
2022-08-02T06:14:07.069Z,4.00
2022-08-02T06:16:41.884Z,3.90
2022-08-02T06:19:12.479Z,3.47
2022-08-02T06:22:32.746Z,3.93
2022-08-02T06:24:29.244Z,4.00
2022-08-02T06:26:58.983Z,4.07
2022-08-02T06:29:27.416Z,4.10
2022-08-02T06:31:55.483Z,4.20
2022-08-02T06:34:23.634Z,4.07
2022-08-02T06:36:56.625Z,4.17
2022-08-02T06:39:30.288Z,3.97
2022-08-02T06:42:00.569Z,3.90
2022-08-02T06:44:49.704Z,4.40
2022-08-02T06:47:19.405Z,4.50
2022-08-02T06:49:52.680Z,4.57
2022-08-02T06:52:28.234Z,4.63
2022-08-02T06:54:58.253Z,4.47
2022-08-02T06:57:27.824Z,5.60
2022-08-02T06:59:56.297Z,4.97
2022-08-02T07:02:24.355Z,5.00
2022-08-02T07:04:52.556Z,5.40
2022-08-02T07:07:20.707Z,10.88
2022-08-02T07:09:57.071Z,7.03
2022-08-02T07:12:34.788Z,6.23
2022-08-02T07:15:05.365Z,6.20
2022-08-02T07:17:34.055Z,5.93
2022-08-02T07:20:02.262Z,5.50
2022-08-02T07:22:30.621Z,5.93
2022-08-02T07:24:59.899Z,5.97
2022-08-02T07:27:28.398Z,6.80
2022-08-02T07:29:58.308Z,7.13
2022-08-02T07:32:29.644Z,7.23
2022-08-02T07:34:57.839Z,6.97
2022-08-02T07:37:54.176Z,6.20
2022-08-02T07:40:20.306Z,6.27
2022-08-02T07:42:49.477Z,6.23
2022-08-02T07:45:19.016Z,6.10
2022-08-02T07:47:47.289Z,6.07
2022-08-02T07:50:16.689Z,6.10
2022-08-02T07:52:45.708Z,5.70
2022-08-02T07:55:14.930Z,5.83
2022-08-02T07:57:46.358Z,6.00
2022-08-02T08:00:17.434Z,5.97
2022-08-02T08:02:47.693Z,5.50
2022-08-02T08:05:16.040Z,5.77
2022-08-02T08:07:44.223Z,5.90
2022-08-02T08:10:12.646Z,5.93
2022-08-02T08:12:40.699Z,5.47
2022-08-02T08:15:09.811Z,5.50
2022-08-02T08:17:38.615Z,5.80
2022-08-02T08:20:11.733Z,5.47
2022-08-02T08:22:42.194Z,5.30
2022-08-02T08:25:10.555Z,5.00
2022-08-02T08:27:39.084Z,5.40
2022-08-02T08:30:08.302Z,5.67
2022-08-02T08:32:36.354Z,5.27
2022-08-02T08:35:06.992Z,5.40
2022-08-02T08:37:37.026Z,5.77
2022-08-02T08:40:05.833Z,5.47
2022-08-02T08:42:34.332Z,5.07
2022-08-02T08:45:02.690Z,5.37
2022-08-02T08:47:35.920Z,4.80
2022-08-02T08:50:07.313Z,4.47
2022-08-02T08:52:38.402Z,4.47
2022-08-02T08:55:09.522Z,4.10
2022-08-02T08:57:41.688Z,4.10
2022-08-02T09:00:11.140Z,4.10
2022-08-02T09:02:39.497Z,3.50
2022-08-02T09:05:11.531Z,4.00
2022-08-02T09:07:42.777Z,3.60
2022-08-02T09:10:39.181Z,3.80
2022-08-02T09:13:30.829Z,4.00
2022-08-02T09:15:59.352Z,3.97
2022-08-02T09:18:47.733Z,3.80
2022-08-02T09:21:20.856Z,3.43
2022-08-02T09:23:51.794Z,3.80
2022-08-02T09:26:21.428Z,3.67
2022-08-02T09:28:51.563Z,3.63
2022-08-02T09:31:21.554Z,3.57
2022-08-02T09:33:54.543Z,3.30
2022-08-02T09:36:24.127Z,3.23
2022-08-02T09:39:01.497Z,3.37
2022-08-02T09:41:31.011Z,3.50
2022-08-02T09:44:04.346Z,3.50
2022-08-02T09:46:37.869Z,3.23
2022-08-02T09:49:09.112Z,3.23
2022-08-02T09:51:40.321Z,2.93
2022-08-02T09:54:12.944Z,2.93
2022-08-02T09:56:43.581Z,2.83
2022-08-02T09:59:11.885Z,3.10
2022-08-02T10:01:48.413Z,3.20
2022-08-02T10:04:24.623Z,2.77
2022-08-02T10:06:54.583Z,2.57
2022-08-02T10:09:24.133Z,2.80
2022-08-02T10:11:52.595Z,2.50
2022-08-02T10:14:21.605Z,2.70
2022-08-02T10:16:49.811Z,2.30
2022-08-02T10:19:17.900Z,2.40
2022-08-02T10:22:07.407Z,2.37
2022-08-02T10:24:39.535Z,2.53
2022-08-02T10:27:18.363Z,2.60
2022-08-02T10:29:53.624Z,2.60
2022-08-02T10:32:27.633Z,2.70
2022-08-02T10:34:58.747Z,2.30
2022-08-02T10:37:47.450Z,2.90
2022-08-02T10:40:24.190Z,2.47
2022-08-02T10:42:54.406Z,2.53
2022-08-02T10:45:23.651Z,2.80
2022-08-02T10:48:02.914Z,2.70
2022-08-02T10:50:53.631Z,2.97
2022-08-02T10:53:29.907Z,2.93
2022-08-02T10:56:03.408Z,3.20
2022-08-02T10:58:32.715Z,3.30
2022-08-02T11:01:05.592Z,2.70
2022-08-02T11:03:41.940Z,2.67
2022-08-02T11:06:24.972Z,2.80
2022-08-02T11:09:32.418Z,2.60
2022-08-02T11:12:05.193Z,2.60
2022-08-02T11:14:34.378Z,2.60
2022-08-02T11:17:11.361Z,2.87
2022-08-02T11:20:16.162Z,2.70
2022-08-02T11:22:45.420Z,2.47
2022-08-02T11:26:02.186Z,2.67
2022-08-02T11:28:25.974Z,2.30
2022-08-02T11:30:58.983Z,2.80
2022-08-02T11:33:32.171Z,2.27
2022-08-02T11:36:04.654Z,2.50
2022-08-02T11:38:32.754Z,2.57
2022-08-02T11:41:09.594Z,2.70
2022-08-02T11:43:39.828Z,2.50
2022-08-02T11:46:14.195Z,2.60
2022-08-02T11:48:43.917Z,2.67
2022-08-02T11:51:13.771Z,2.67
2022-08-02T11:53:50.215Z,2.63
2022-08-02T11:56:24.145Z,2.67
2022-08-02T11:59:04.655Z,2.77
2022-08-02T12:01:36.923Z,2.50
2022-08-02T12:04:18.702Z,2.60
2022-08-02T12:06:57.883Z,2.43
2022-08-02T12:09:27.941Z,2.40
2022-08-02T12:11:57.757Z,2.80
2022-08-02T12:14:29.238Z,2.60
2022-08-02T12:17:15.218Z,2.50
2022-08-02T12:19:43.802Z,2.30
2022-08-02T12:22:17.749Z,2.30
2022-08-02T12:24:48.153Z,2.50
2022-08-02T12:27:33.862Z,2.20
2022-08-02T12:30:07.320Z,2.33
2022-08-02T12:32:36.043Z,2.70
2022-08-02T12:35:08.258Z,2.50
2022-08-02T12:37:37.569Z,2.40
2022-08-02T12:40:25.731Z,2.30
2022-08-02T12:42:56.946Z,2.50
2022-08-02T12:45:27.369Z,2.60
2022-08-02T12:48:07.455Z,2.60
2022-08-02T12:50:37.594Z,2.70
2022-08-02T12:53:07.646Z,2.40
2022-08-02T12:56:01.129Z,2.30
2022-08-02T12:58:26.830Z,2.40
2022-08-02T13:00:57.869Z,2.60
2022-08-02T13:04:09.897Z,2.40
2022-08-02T13:06:44.059Z,2.20
2022-08-02T13:09:15.855Z,2.30
2022-08-02T13:11:44.532Z,2.60
2022-08-02T13:14:14.097Z,2.30
2022-08-02T13:16:47.438Z,2.40
2022-08-02T13:19:16.279Z,2.30
2022-08-02T13:22:02.156Z,2.20
2022-08-02T13:24:41.080Z,2.40
2022-08-02T13:27:21.716Z,2.30
2022-08-02T13:29:49.827Z,2.20
2022-08-02T13:32:19.631Z,2.10
2022-08-02T13:34:48.162Z,2.40
2022-08-02T13:37:16.868Z,2.30
2022-08-02T13:40:00.467Z,2.30
2022-08-02T13:42:33.296Z,2.40
2022-08-02T13:45:12.450Z,2.20
2022-08-02T13:48:04.825Z,2.10
2022-08-02T13:50:32.533Z,2.10
2022-08-02T13:53:00.639Z,2.10
2022-08-02T13:55:29.123Z,2.10
2022-08-02T13:57:57.369Z,2.00
2022-08-02T14:00:35.049Z,2.33
2022-08-02T14:03:07.122Z,2.20
2022-08-02T14:05:46.816Z,2.40
2022-08-02T14:08:19.213Z,2.33
2022-08-02T14:10:47.927Z,2.50
2022-08-02T14:13:16.562Z,2.30
2022-08-02T14:15:44.883Z,2.20
2022-08-02T14:18:15.314Z,2.47
2022-08-02T14:20:43.963Z,2.40
2022-08-02T14:23:12.175Z,2.40
2022-08-02T14:25:40.332Z,2.30
2022-08-02T14:28:08.631Z,2.17
2022-08-02T14:30:36.750Z,2.30
2022-08-02T14:33:05.102Z,2.10
2022-08-02T14:35:34.832Z,2.30
2022-08-02T14:38:02.908Z,2.47
2022-08-02T14:40:32.050Z,2.50
2022-08-02T14:43:01.057Z,2.40
2022-08-02T14:45:36.978Z,2.20
2022-08-02T14:48:11.421Z,2.50
2022-08-02T14:50:41.132Z,2.22
2022-08-02T14:53:12.817Z,2.40
2022-08-02T14:55:42.697Z,2.40
2022-08-02T14:58:11.334Z,2.25
2022-08-02T15:00:41.504Z,2.42
2022-08-02T15:03:10.687Z,2.40
2022-08-02T15:05:40.803Z,2.70
2022-08-02T15:08:08.938Z,2.50
2022-08-02T15:10:37.212Z,2.30
2022-08-02T15:13:05.499Z,2.50
2022-08-02T15:15:42.209Z,2.30
2022-08-02T15:18:12.919Z,2.45
2022-08-02T15:20:45.392Z,2.60
2022-08-02T15:23:37.307Z,2.22
2022-08-02T15:26:07.360Z,2.35
2022-08-02T15:28:35.635Z,2.30
2022-08-02T15:31:03.924Z,2.60
2022-08-02T15:33:32.096Z,2.30
2022-08-02T15:36:01.651Z,2.47
2022-08-02T15:38:29.850Z,2.65
2022-08-02T15:40:58.026Z,2.30
2022-08-02T15:43:26.325Z,2.30
2022-08-02T15:45:54.487Z,2.53
2022-08-02T15:48:22.570Z,2.25
2022-08-02T15:50:50.656Z,2.30
2022-08-02T15:53:20.145Z,2.50
2022-08-02T15:56:05.128Z,2.45
2022-08-02T15:58:34.785Z,2.50
2022-08-02T16:01:12.570Z,2.40
2022-08-02T16:03:40.711Z,1.90
2022-08-02T16:06:08.860Z,2.40
2022-08-02T16:08:38.358Z,2.30
2022-08-02T16:11:13.400Z,2.40
2022-08-02T16:13:56.746Z,2.40
2022-08-02T16:16:26.659Z,2.22
2022-08-02T16:18:55.178Z,2.17
2022-08-02T16:21:24.654Z,2.30
2022-08-02T16:24:01.790Z,2.20
2022-08-02T16:26:31.768Z,2.20
2022-08-02T16:29:00.377Z,2.25
2022-08-02T16:31:28.591Z,2.30
2022-08-02T16:33:57.408Z,2.20
2022-08-02T16:36:26.232Z,2.30
2022-08-02T16:38:56.024Z,2.10
2022-08-02T16:41:24.270Z,2.17
2022-08-02T16:44:12.339Z,2.03
2022-08-02T16:46:40.410Z,2.03
2022-08-02T16:50:05.986Z,2.08
2022-08-02T16:52:01.513Z,2.10
2022-08-02T16:54:32.015Z,2.28
2022-08-02T16:57:00.138Z,2.10
2022-08-02T16:59:34.030Z,2.20
2022-08-02T17:02:15.195Z,2.28
2022-08-02T17:04:46.701Z,2.00
2022-08-02T17:10:09.106Z,2.08
2022-08-02T17:12:38.452Z,2.17
2022-08-02T17:16:16.702Z,2.20
2022-08-02T17:17:55.672Z,1.90
2022-08-02T17:20:24.430Z,1.90
2022-08-02T17:22:53.222Z,2.00
2022-08-02T17:25:24.675Z,1.80
2022-08-02T17:27:55.585Z,1.80
2022-08-02T17:30:26.914Z,1.80
2022-08-02T17:32:57.646Z,1.90
2022-08-02T17:35:43.931Z,1.60
2022-08-02T17:38:18.086Z,1.77
2022-08-02T17:40:56.231Z,1.97
2022-08-02T17:43:29.145Z,1.70
2022-08-02T17:46:12.888Z,1.90
2022-08-02T17:49:00.966Z,1.97
2022-08-02T17:52:15.897Z,1.80
2022-08-02T17:54:19.833Z,2.07
2022-08-02T17:56:50.461Z,1.90
2022-08-02T17:59:31.141Z,1.90
2022-08-02T18:02:11.332Z,2.00
2022-08-02T18:04:39.543Z,2.20
2022-08-02T18:07:10.368Z,1.90
2022-08-02T18:09:43.394Z,2.20
2022-08-02T18:12:14.691Z,2.00
2022-08-02T18:14:49.145Z,2.00
2022-08-02T18:17:42.295Z,2.20
2022-08-02T18:20:11.633Z,1.97
2022-08-02T18:22:39.870Z,2.00
2022-08-02T18:25:11.286Z,2.00
2022-08-02T18:27:47.903Z,2.00
2022-08-02T18:30:17.690Z,1.90
2022-08-02T18:33:54.350Z,2.03
2022-08-02T18:35:44.460Z,1.90
2022-08-02T18:38:12.565Z,2.03
2022-08-02T18:40:40.715Z,2.00
2022-08-02T18:43:10.985Z,1.83
2022-08-02T18:46:06.593Z,2.00
2022-08-02T18:48:30.577Z,1.93
2022-08-02T18:50:58.895Z,2.30
2022-08-02T18:53:28.180Z,2.37
2022-08-02T18:56:09.765Z,2.13
2022-08-02T18:58:50.004Z,2.13
2022-08-02T19:01:32.772Z,2.30
2022-08-02T19:04:04.143Z,2.30
2022-08-02T19:06:32.593Z,2.60
2022-08-02T19:09:11.109Z,2.90
2022-08-02T19:11:48.354Z,2.77
2022-08-02T19:14:27.311Z,3.10
2022-08-02T19:16:58.139Z,2.50
2022-08-02T19:19:29.195Z,3.17
2022-08-02T19:22:16.587Z,2.77
2022-08-02T19:24:47.235Z,2.43
2022-08-02T19:27:20.665Z,2.97
2022-08-02T19:29:55.655Z,2.40
2022-08-02T19:32:42.887Z,2.23
2022-08-02T19:38:12.344Z,2.40
2022-08-02T19:40:42.235Z,2.33
2022-08-02T19:44:26.075Z,2.30
2022-08-02T19:46:02.391Z,2.60
2022-08-02T19:48:30.815Z,2.50
2022-08-02T19:51:00.678Z,2.47
2022-08-02T19:53:47.520Z,2.33
2022-08-02T19:56:24.863Z,2.47
2022-08-02T19:58:54.756Z,2.20
2022-08-02T20:01:36.585Z,2.50
2022-08-02T20:04:07.649Z,2.60
2022-08-02T20:06:45.153Z,2.37
2022-08-02T20:09:16.600Z,2.60
2022-08-02T20:11:45.469Z,2.90
2022-08-02T20:14:13.550Z,3.17
2022-08-02T20:16:43.042Z,2.50
2022-08-02T20:19:14.151Z,2.40
2022-08-02T20:21:50.525Z,2.63
2022-08-02T20:24:26.475Z,2.43
2022-08-02T20:26:55.021Z,2.30
2022-08-02T20:29:43.197Z,2.40
2022-08-02T20:32:14.752Z,2.60
2022-08-02T20:34:43.310Z,3.00
2022-08-02T20:38:00.381Z,3.20
2022-08-02T20:40:06.935Z,3.10
2022-08-02T20:42:35.407Z,3.40
2022-08-02T20:45:03.586Z,3.53
2022-08-02T20:47:39.312Z,3.40
2022-08-02T20:50:30.279Z,3.10
2022-08-02T20:52:59.959Z,2.87
2022-08-02T20:55:30.834Z,2.90
2022-08-02T20:58:01.735Z,2.40
2022-08-02T21:00:31.805Z,2.90
2022-08-02T21:03:02.682Z,2.60
2022-08-02T21:05:43.754Z,2.63
2022-08-02T21:08:21.709Z,2.93
2022-08-02T21:13:46.429Z,2.80
2022-08-02T21:16:19.165Z,2.80
2022-08-02T21:18:55.832Z,2.97
2022-08-02T21:21:29.535Z,2.80
2022-08-02T21:23:58.828Z,2.93
2022-08-02T21:26:30.777Z,2.80
2022-08-02T21:29:01.046Z,2.90
2022-08-02T21:31:31.988Z,2.77
2022-08-02T21:34:21.686Z,3.10
2022-08-02T21:36:53.833Z,3.10
2022-08-02T21:39:21.912Z,2.83
2022-08-02T21:41:50.146Z,3.20
2022-08-02T21:44:19.339Z,3.20
2022-08-02T21:46:49.522Z,3.00
2022-08-02T21:49:20.669Z,3.10
2022-08-02T21:51:50.300Z,3.17
2022-08-02T21:54:21.340Z,3.53
2022-08-02T21:56:52.046Z,3.37
2022-08-02T21:59:26.239Z,3.53
2022-08-02T22:01:56.446Z,3.30
2022-08-02T22:04:26.701Z,3.63
2022-08-02T22:06:55.348Z,3.47
2022-08-02T22:09:43.122Z,3.40
2022-08-02T22:15:00.935Z,3.33
2022-08-02T22:17:50.598Z,3.70
2022-08-02T22:20:20.800Z,3.50
2022-08-02T22:22:50.399Z,3.77
2022-08-02T22:25:31.399Z,2.90
2022-08-02T22:28:35.595Z,3.50
2022-08-02T22:30:57.102Z,4.10
2022-08-02T22:33:47.121Z,3.77
2022-08-02T22:36:31.520Z,3.60
2022-08-02T22:39:00.314Z,3.70
2022-08-02T22:42:01.667Z,3.70
2022-08-02T22:44:18.561Z,3.60
2022-08-02T22:46:47.224Z,3.93
2022-08-02T22:49:38.595Z,3.60
2022-08-02T22:52:08.565Z,3.87
2022-08-02T22:54:38.944Z,3.70
2022-08-02T22:57:11.398Z,3.70
2022-08-02T22:58:50.120Z,2.23
2022-08-02T22:58:52.376Z,2.90
2022-08-02T22:59:11.342Z,2.83
2022-08-02T22:59:40.819Z,3.93
2022-08-02T23:02:09.849Z,3.80
2022-08-02T23:04:38.507Z,3.40
2022-08-02T23:07:08.373Z,3.53
2022-08-02T23:09:36.514Z,3.50
2022-08-02T23:12:05.470Z,3.33
2022-08-02T23:14:33.649Z,3.77
2022-08-02T23:17:19.369Z,3.77
2022-08-02T23:20:13.281Z,4.00
2022-08-02T23:22:43.285Z,4.07
2022-08-02T23:25:11.368Z,4.10
2022-08-02T23:27:39.579Z,4.07
2022-08-02T23:30:53.420Z,4.17
2022-08-02T23:33:21.530Z,4.03
2022-08-02T23:35:49.635Z,3.90
2022-08-02T23:38:19.115Z,4.33
2022-08-02T23:40:47.165Z,4.40
2022-08-02T23:43:18.988Z,3.90
2022-08-02T23:45:47.025Z,3.90
2022-08-02T23:48:15.168Z,3.80
2022-08-02T23:50:43.333Z,3.80
2022-08-02T23:53:11.475Z,3.97
2022-08-02T23:55:41.244Z,4.03
2022-08-02T23:58:09.390Z,4.30
